createdAt,value
2022-12-17T00:01:35.229Z,24.10
2022-12-17T00:04:23.395Z,23.80
2022-12-17T00:07:09.095Z,22.92
2022-12-17T00:09:55.454Z,23.75
2022-12-17T00:12:41.874Z,27.85
2022-12-17T00:15:29.249Z,25.23
2022-12-17T00:18:21.338Z,25.35
2022-12-17T00:21:11.395Z,24.70
2022-12-17T00:23:56.843Z,25.75
2022-12-17T00:26:42.613Z,25.63
2022-12-17T00:29:28.111Z,24.65
2022-12-17T00:32:14.804Z,23.58
2022-12-17T00:35:00.127Z,23.27
2022-12-17T00:37:45.799Z,25.48
2022-12-17T00:40:31.158Z,25.17
2022-12-17T00:43:20.198Z,25.20
2022-12-17T00:46:07.367Z,24.70
2022-12-17T00:48:54.744Z,24.73
2022-12-17T00:51:41.883Z,24.88
2022-12-17T00:54:27.511Z,24.67
2022-12-17T00:57:12.853Z,26.02
2022-12-17T00:59:58.034Z,24.30
2022-12-17T01:02:44.461Z,24.83
2022-12-17T01:05:31.377Z,25.60
2022-12-17T01:08:25.487Z,25.77
2022-12-17T01:11:11.095Z,27.27
2022-12-17T01:13:56.824Z,26.40
2022-12-17T01:16:42.558Z,28.60
2022-12-17T01:19:28.031Z,25.33
2022-12-17T01:22:15.033Z,27.73
2022-12-17T01:25:00.313Z,27.88
2022-12-17T01:27:45.842Z,25.92
2022-12-17T01:30:31.276Z,30.48
2022-12-17T01:33:20.033Z,29.90
2022-12-17T01:36:05.551Z,28.70
2022-12-17T01:38:52.694Z,29.52
2022-12-17T01:41:38.673Z,31.92
2022-12-17T01:44:57.108Z,31.70
2022-12-17T01:47:43.127Z,33.63
2022-12-17T01:50:29.772Z,31.92
2022-12-17T01:53:18.549Z,30.45
2022-12-17T01:56:06.786Z,30.75
2022-12-17T01:58:53.728Z,34.55
2022-12-17T02:01:39.922Z,32.85
2022-12-17T02:04:27.369Z,30.48
2022-12-17T02:07:21.983Z,33.63
2022-12-17T02:10:17.828Z,33.30
2022-12-17T02:13:09.844Z,32.95
2022-12-17T02:16:04.107Z,31.92
2022-12-17T02:19:01.797Z,33.17
2022-12-17T02:21:49.611Z,36.35
2022-12-17T02:24:46.628Z,34.60
2022-12-17T02:27:34.166Z,36.10
2022-12-17T02:30:25.103Z,36.45
2022-12-17T02:33:12.132Z,35.85
2022-12-17T02:36:13.196Z,33.47
2022-12-17T02:38:59.147Z,32.65
2022-12-17T02:41:47.738Z,31.15
2022-12-17T02:44:39.203Z,33.00
2022-12-17T02:47:28.562Z,32.67
2022-12-17T02:50:15.018Z,34.40
2022-12-17T02:53:06.501Z,33.00
2022-12-17T02:55:53.035Z,32.17
2022-12-17T02:58:38.788Z,30.95
2022-12-17T03:01:26.223Z,31.88
2022-12-17T03:04:12.046Z,30.50
2022-12-17T03:06:58.488Z,32.40
2022-12-17T03:09:44.886Z,31.33
2022-12-17T03:12:30.442Z,29.92
2022-12-17T03:15:15.800Z,30.98
2022-12-17T03:18:02.886Z,30.40
2022-12-17T03:20:48.371Z,30.02
2022-12-17T03:23:34.410Z,29.00
2022-12-17T03:26:21.549Z,30.63
2022-12-17T03:29:07.612Z,30.27
2022-12-17T03:31:53.067Z,28.88
2022-12-17T03:34:39.827Z,27.85
2022-12-17T03:37:25.384Z,29.20
2022-12-17T03:40:10.847Z,30.48
2022-12-17T03:42:56.527Z,27.77
2022-12-17T03:45:42.252Z,30.05
2022-12-17T03:48:29.951Z,28.73
2022-12-17T03:51:17.579Z,29.25
2022-12-17T03:54:04.071Z,29.65
2022-12-17T03:56:49.563Z,29.05
2022-12-17T03:59:35.123Z,30.50
2022-12-17T04:02:32.429Z,30.83
2022-12-17T04:05:20.383Z,28.52
2022-12-17T04:08:07.210Z,29.83
2022-12-17T04:10:52.439Z,29.42
2022-12-17T04:13:41.101Z,28.75
2022-12-17T04:16:31.130Z,32.58
2022-12-17T04:19:17.265Z,28.23
2022-12-17T04:22:02.936Z,28.23
2022-12-17T04:24:50.033Z,28.08
2022-12-17T04:27:35.595Z,31.15
2022-12-17T04:30:21.231Z,29.02
2022-12-17T04:33:07.098Z,29.60
2022-12-17T04:35:52.510Z,29.70
2022-12-17T04:38:38.281Z,30.17
2022-12-17T04:41:25.326Z,29.15
2022-12-17T04:44:10.741Z,30.15
2022-12-17T04:46:56.229Z,31.33
2022-12-17T04:49:41.838Z,30.25
2022-12-17T04:52:27.445Z,30.30
2022-12-17T04:55:12.810Z,32.00
2022-12-17T04:57:59.394Z,29.83
2022-12-17T05:00:44.961Z,30.77
2022-12-17T05:03:33.054Z,31.17
2022-12-17T05:06:18.972Z,31.45
2022-12-17T05:09:05.010Z,30.67
2022-12-17T05:11:50.671Z,31.15
2022-12-17T05:14:37.452Z,30.63
2022-12-17T05:17:22.874Z,32.13
2022-12-17T05:20:08.175Z,31.58
2022-12-17T05:22:53.868Z,30.92
2022-12-17T05:25:39.507Z,32.22
2022-12-17T05:28:25.031Z,30.52
2022-12-17T05:31:12.789Z,31.13
2022-12-17T05:34:00.641Z,32.28
2022-12-17T05:36:46.386Z,33.42
2022-12-17T05:39:31.709Z,31.55
2022-12-17T05:42:17.047Z,32.35
2022-12-17T05:45:03.723Z,34.08
2022-12-17T05:47:50.421Z,32.28
2022-12-17T05:50:35.623Z,32.20
2022-12-17T05:53:22.853Z,31.88
2022-12-17T05:56:08.718Z,33.13
2022-12-17T05:58:54.012Z,31.77
2022-12-17T06:01:39.693Z,34.05
2022-12-17T06:04:28.177Z,33.25
2022-12-17T06:07:13.519Z,30.67
2022-12-17T06:09:58.867Z,31.48
2022-12-17T06:12:44.223Z,30.55
2022-12-17T06:15:29.597Z,31.98
2022-12-17T06:18:17.285Z,31.02
2022-12-17T06:21:04.676Z,33.45
2022-12-17T06:23:55.182Z,34.10
2022-12-17T06:26:40.858Z,32.85
2022-12-17T06:29:28.152Z,32.90
2022-12-17T06:32:14.485Z,32.78
2022-12-17T06:34:59.847Z,32.38
2022-12-17T06:37:46.843Z,32.22
2022-12-17T06:40:32.140Z,33.03
2022-12-17T06:43:26.136Z,33.33
2022-12-17T06:46:11.536Z,31.83
2022-12-17T06:48:56.882Z,32.55
2022-12-17T06:51:47.661Z,31.45
2022-12-17T06:54:34.354Z,31.58
2022-12-17T06:57:20.273Z,34.30
2022-12-17T07:00:06.236Z,32.40
2022-12-17T07:02:52.563Z,35.33
2022-12-17T07:05:38.097Z,32.00
2022-12-17T07:08:23.514Z,31.77
2022-12-17T07:11:10.635Z,34.28
2022-12-17T07:13:56.180Z,32.45
2022-12-17T07:16:41.795Z,33.55
2022-12-17T07:19:27.875Z,32.75
2022-12-17T07:22:14.185Z,32.83
2022-12-17T07:25:00.203Z,32.95
2022-12-17T07:27:47.429Z,33.28
2022-12-17T07:30:32.925Z,32.30
2022-12-17T07:33:19.303Z,34.83
2022-12-17T07:36:04.662Z,35.35
2022-12-17T07:38:50.548Z,33.25
2022-12-17T07:41:36.519Z,35.08
2022-12-17T07:44:26.119Z,35.80
2022-12-17T07:47:11.499Z,36.42
2022-12-17T07:49:56.911Z,36.28
2022-12-17T07:52:42.717Z,35.78
2022-12-17T07:55:28.188Z,35.90
2022-12-17T07:58:17.889Z,36.35
2022-12-17T08:01:04.769Z,35.95
2022-12-17T08:03:51.216Z,37.25
2022-12-17T08:06:37.565Z,35.03
2022-12-17T08:09:22.848Z,36.20
2022-12-17T08:12:08.191Z,37.00
2022-12-17T08:14:53.436Z,34.45
2022-12-17T08:17:40.095Z,37.15
2022-12-17T08:20:26.804Z,34.38
2022-12-17T08:23:19.455Z,34.33
2022-12-17T08:26:04.853Z,36.13
2022-12-17T08:28:51.187Z,37.30
2022-12-17T08:31:37.740Z,35.80
2022-12-17T08:34:24.812Z,36.47
2022-12-17T08:37:10.137Z,37.45
2022-12-17T08:39:56.020Z,35.28
2022-12-17T08:42:50.416Z,33.22
2022-12-17T08:45:35.789Z,34.22
2022-12-17T08:48:29.582Z,35.75
2022-12-17T08:51:16.442Z,34.40
2022-12-17T08:54:01.835Z,31.67
2022-12-17T08:56:47.086Z,34.60
2022-12-17T08:59:32.697Z,34.13
2022-12-17T09:02:18.227Z,33.80
2022-12-17T09:05:03.698Z,34.17
2022-12-17T09:07:50.350Z,34.60
2022-12-17T09:10:35.805Z,33.40
2022-12-17T09:13:21.894Z,33.85
2022-12-17T09:16:11.005Z,34.90
2022-12-17T09:18:56.399Z,35.40
2022-12-17T09:21:42.476Z,36.10
2022-12-17T09:24:33.092Z,33.60
2022-12-17T09:27:21.895Z,34.97
2022-12-17T09:30:07.379Z,34.58
2022-12-17T09:32:52.805Z,35.33
2022-12-17T09:35:37.301Z,33.58
2022-12-17T09:38:22.822Z,35.05
2022-12-17T09:41:10.360Z,35.25
2022-12-17T09:44:03.826Z,37.35
2022-12-17T09:46:54.548Z,36.20
2022-12-17T09:49:43.364Z,34.10
2022-12-17T09:52:38.498Z,34.00
2022-12-17T09:55:41.119Z,32.67
2022-12-17T09:58:38.093Z,34.25
2022-12-17T10:01:24.756Z,35.28
2022-12-17T10:04:10.724Z,33.13
2022-12-17T10:06:56.163Z,33.53
2022-12-17T10:09:44.359Z,34.38
2022-12-17T10:12:33.368Z,35.25
2022-12-17T10:15:19.700Z,34.78
2022-12-17T10:18:05.269Z,33.83
2022-12-17T10:20:57.090Z,33.55
2022-12-17T10:23:44.147Z,35.38
2022-12-17T10:26:38.402Z,36.80
2022-12-17T10:29:28.482Z,36.13
2022-12-17T10:32:18.963Z,33.97
2022-12-17T10:35:05.829Z,31.65
2022-12-17T10:37:54.419Z,34.28
2022-12-17T10:40:44.416Z,34.72
2022-12-17T10:43:44.350Z,35.63
2022-12-17T10:46:29.708Z,33.75
2022-12-17T10:49:29.365Z,33.03
2022-12-17T10:52:19.446Z,31.83
2022-12-17T10:55:15.154Z,34.90
2022-12-17T10:58:02.619Z,35.83
2022-12-17T11:00:50.771Z,34.80
2022-12-17T11:03:56.940Z,36.00
2022-12-17T11:06:44.667Z,36.13
2022-12-17T11:09:40.348Z,36.55
2022-12-17T11:12:30.766Z,35.65
2022-12-17T11:15:23.269Z,35.00
2022-12-17T11:18:11.752Z,35.50
2022-12-17T11:21:06.040Z,38.08
2022-12-17T11:23:55.296Z,38.83
2022-12-17T11:26:43.484Z,38.13
2022-12-17T11:29:32.320Z,36.90
2022-12-17T11:32:34.136Z,37.78
2022-12-17T11:35:28.642Z,37.00
2022-12-17T11:38:29.058Z,38.25
2022-12-17T11:41:26.363Z,38.83
2022-12-17T11:44:21.710Z,37.28
2022-12-17T11:47:14.295Z,37.78
2022-12-17T11:50:08.194Z,37.28
2022-12-17T11:53:04.099Z,37.42
2022-12-17T11:55:57.707Z,36.85
2022-12-17T11:58:53.588Z,38.53
2022-12-17T12:01:46.703Z,35.38
2022-12-17T12:04:45.443Z,35.63
2022-12-17T12:07:38.460Z,36.95
2022-12-17T12:10:32.923Z,37.20
2022-12-17T12:13:29.060Z,37.17
2022-12-17T12:16:25.425Z,37.92
2022-12-17T12:19:19.221Z,37.75
2022-12-17T12:22:15.952Z,37.58
2022-12-17T12:25:27.162Z,36.00
2022-12-17T12:28:22.263Z,37.28
2022-12-17T12:31:15.229Z,35.47
2022-12-17T12:34:09.036Z,38.03
2022-12-17T12:36:56.385Z,35.88
2022-12-17T12:39:45.915Z,37.20
2022-12-17T12:42:38.008Z,35.63
2022-12-17T12:45:36.271Z,36.95
2022-12-17T12:48:28.577Z,36.05
2022-12-17T12:51:21.047Z,37.67
2022-12-17T12:54:15.390Z,36.95
2022-12-17T12:57:06.024Z,37.20
2022-12-17T12:59:53.696Z,38.33
2022-12-17T13:02:50.676Z,38.70
2022-12-17T13:05:34.508Z,35.15
2022-12-17T13:08:06.806Z,36.83
2022-12-17T13:10:35.761Z,35.03
2022-12-17T13:13:14.379Z,36.58
2022-12-17T13:15:47.220Z,35.80
2022-12-17T13:18:25.163Z,38.78
2022-12-17T13:21:02.607Z,37.22
2022-12-17T13:23:35.049Z,37.97
2022-12-17T13:26:20.429Z,26.08
2022-12-17T13:29:13.027Z,38.63
2022-12-17T13:31:59.674Z,38.28
2022-12-17T13:34:36.799Z,36.67
2022-12-17T13:37:13.340Z,38.85
2022-12-17T13:39:49.589Z,36.58
2022-12-17T13:42:21.396Z,34.70
2022-12-17T13:44:49.911Z,40.33
2022-12-17T13:47:23.156Z,38.60
2022-12-17T13:50:17.063Z,36.10
2022-12-17T13:52:40.363Z,36.88
2022-12-17T13:55:14.571Z,37.45
2022-12-17T13:57:47.164Z,38.42
2022-12-17T14:00:22.359Z,37.20
2022-12-17T14:02:51.482Z,38.85
2022-12-17T14:05:26.811Z,38.53
2022-12-17T14:07:55.465Z,35.10
2022-12-17T14:10:25.860Z,37.65
2022-12-17T14:13:04.356Z,37.42
2022-12-17T14:15:33.623Z,38.28
2022-12-17T14:18:02.568Z,38.97
2022-12-17T14:20:33.835Z,36.58
2022-12-17T14:23:05.247Z,37.63
2022-12-17T14:25:38.093Z,37.47
2022-12-17T14:28:08.084Z,28.90
2022-12-17T14:30:46.369Z,38.28
2022-12-17T14:33:28.807Z,37.97
2022-12-17T14:35:58.203Z,38.15
2022-12-17T14:38:38.040Z,38.95
2022-12-17T14:41:27.057Z,38.40
2022-12-17T14:44:00.507Z,37.33
2022-12-17T14:49:03.814Z,38.25
2022-12-17T14:51:35.024Z,39.33
2022-12-17T14:54:19.629Z,35.50
2022-12-17T14:56:50.667Z,38.70
2022-12-17T14:59:27.358Z,37.33
2022-12-17T15:01:56.479Z,38.17
2022-12-17T15:04:25.023Z,39.25
2022-12-17T15:06:55.824Z,37.90
2022-12-17T15:09:23.732Z,38.15
2022-12-17T15:11:53.042Z,36.88
2022-12-17T15:14:20.901Z,41.17
2022-12-17T15:16:48.930Z,39.30
2022-12-17T15:19:17.151Z,38.70
2022-12-17T15:21:45.160Z,39.75
2022-12-17T15:24:18.276Z,38.63
2022-12-17T15:26:47.145Z,40.58
2022-12-17T15:29:16.438Z,40.05
2022-12-17T15:31:44.437Z,39.92
2022-12-17T15:34:13.393Z,38.22
2022-12-17T15:36:41.548Z,37.85
2022-12-17T15:39:09.735Z,38.03
2022-12-17T15:41:55.066Z,37.75
2022-12-17T15:44:24.284Z,37.33
2022-12-17T15:46:52.261Z,35.90
2022-12-17T15:49:22.991Z,38.42
2022-12-17T15:51:51.054Z,39.33
2022-12-17T15:54:18.962Z,37.85
2022-12-17T15:56:53.767Z,38.90
2022-12-17T15:59:22.310Z,38.30
2022-12-17T16:01:51.862Z,39.03
2022-12-17T16:04:24.899Z,37.65
2022-12-17T16:06:53.509Z,36.33
2022-12-17T16:09:24.457Z,37.78
2022-12-17T16:11:54.733Z,38.97
2022-12-17T16:14:25.000Z,37.78
2022-12-17T16:16:54.278Z,36.15
2022-12-17T16:19:23.564Z,35.55
2022-12-17T16:21:51.486Z,34.28
2022-12-17T16:24:21.988Z,35.28
2022-12-17T16:26:53.331Z,36.75
2022-12-17T16:29:21.614Z,38.03
2022-12-17T16:31:50.200Z,38.35
2022-12-17T16:34:19.691Z,35.20
2022-12-17T16:36:47.689Z,36.10
2022-12-17T16:39:18.359Z,36.45
2022-12-17T16:41:48.887Z,35.20
2022-12-17T16:44:16.839Z,38.20
2022-12-17T16:46:47.389Z,36.13
2022-12-17T16:49:18.244Z,38.90
2022-12-17T16:51:54.188Z,39.28
2022-12-17T16:54:25.959Z,37.90
2022-12-17T16:56:54.893Z,35.28
2022-12-17T16:59:24.459Z,35.03
2022-12-17T17:01:53.738Z,37.40
2022-12-17T17:04:23.979Z,37.65
2022-12-17T17:06:54.815Z,34.90
2022-12-17T17:09:23.837Z,36.80
2022-12-17T17:11:52.614Z,34.92
2022-12-17T17:14:22.278Z,36.70
2022-12-17T17:16:50.357Z,37.35
2022-12-17T17:19:19.711Z,35.58
2022-12-17T17:21:50.635Z,38.25
2022-12-17T17:24:22.437Z,36.00
2022-12-17T17:26:51.293Z,36.38
2022-12-17T17:29:19.756Z,37.47
2022-12-17T17:34:38.831Z,33.30
2022-12-17T17:37:06.836Z,34.95
2022-12-17T17:39:36.522Z,37.60
2022-12-17T17:42:05.248Z,34.50
2022-12-17T17:44:33.147Z,35.20
2022-12-17T17:47:01.599Z,34.65
2022-12-17T17:49:30.150Z,34.90
2022-12-17T17:52:13.605Z,34.22
2022-12-17T17:54:42.873Z,35.90
2022-12-17T17:57:11.762Z,32.45
2022-12-17T17:59:40.339Z,33.78
2022-12-17T18:02:10.724Z,33.67
2022-12-17T18:04:39.930Z,35.45
2022-12-17T18:07:24.911Z,34.65
2022-12-17T18:09:56.547Z,32.72
2022-12-17T18:12:42.040Z,34.55
2022-12-17T18:15:15.860Z,33.20
2022-12-17T18:17:46.163Z,33.33
2022-12-17T18:20:15.158Z,32.38
2022-12-17T18:22:43.768Z,31.60
2022-12-17T18:25:13.036Z,34.92
2022-12-17T18:27:41.033Z,31.73
2022-12-17T18:30:10.429Z,34.00
2022-12-17T18:33:03.181Z,34.55
2022-12-17T18:35:31.432Z,32.15
2022-12-17T18:37:59.975Z,33.75
2022-12-17T18:40:33.273Z,32.97
2022-12-17T18:43:19.058Z,32.50
2022-12-17T18:45:46.960Z,34.50
2022-12-17T18:48:15.124Z,33.42
2022-12-17T18:50:43.255Z,31.73
2022-12-17T18:53:11.445Z,31.25
2022-12-17T18:55:41.241Z,32.22
2022-12-17T18:58:10.476Z,33.88
2022-12-17T19:00:39.114Z,33.15
2022-12-17T19:03:08.367Z,34.60
2022-12-17T19:05:45.227Z,33.22
2022-12-17T19:08:14.496Z,31.98
2022-12-17T19:10:44.373Z,33.83
2022-12-17T19:13:12.271Z,32.33
2022-12-17T19:15:40.164Z,31.75
2022-12-17T19:18:08.072Z,33.33
2022-12-17T19:20:36.129Z,34.78
2022-12-17T19:23:04.120Z,34.00
2022-12-17T19:25:32.306Z,34.00
2022-12-17T19:28:01.792Z,34.20
2022-12-17T19:30:29.940Z,34.00
2022-12-17T19:32:57.852Z,35.33
2022-12-17T19:35:25.764Z,33.03
2022-12-17T19:37:53.664Z,36.03
2022-12-17T19:40:21.674Z,34.45
2022-12-17T19:42:49.690Z,32.75
2022-12-17T19:45:19.131Z,32.45
2022-12-17T19:47:47.323Z,31.98
2022-12-17T19:50:15.669Z,33.42
2022-12-17T19:52:43.616Z,34.20
2022-12-17T19:55:11.481Z,33.92
2022-12-17T19:57:39.378Z,34.08
2022-12-17T20:00:08.456Z,33.00
2022-12-17T20:05:10.547Z,33.60
2022-12-17T20:07:38.609Z,34.60
2022-12-17T20:10:34.086Z,35.35
2022-12-17T20:13:02.317Z,34.83
2022-12-17T20:15:31.171Z,34.25
2022-12-17T20:18:00.430Z,34.10
2022-12-17T20:20:28.564Z,35.85
2022-12-17T20:22:56.800Z,33.72
2022-12-17T20:25:24.728Z,33.00
2022-12-17T20:27:52.686Z,33.83
2022-12-17T20:30:26.852Z,35.38
2022-12-17T20:32:54.889Z,35.88
2022-12-17T20:35:28.605Z,35.88
2022-12-17T20:37:56.630Z,35.80
2022-12-17T20:40:24.630Z,35.00
2022-12-17T20:42:52.709Z,33.53
2022-12-17T20:45:20.845Z,35.78
2022-12-17T20:47:48.755Z,34.72
2022-12-17T20:50:16.724Z,35.22
2022-12-17T20:52:45.963Z,37.67
2022-12-17T20:55:13.874Z,35.60
2022-12-17T20:57:42.275Z,37.63
2022-12-17T21:00:11.717Z,39.53
2022-12-17T21:02:39.907Z,38.75
2022-12-17T21:05:08.560Z,37.80
2022-12-17T21:07:36.514Z,39.80
2022-12-17T21:10:07.121Z,38.15
2022-12-17T21:12:49.123Z,38.63
2022-12-17T21:15:17.611Z,38.15
2022-12-17T21:17:45.680Z,39.90
2022-12-17T21:20:13.713Z,39.38
2022-12-17T21:22:42.915Z,40.58
2022-12-17T21:25:12.463Z,41.25
2022-12-17T21:27:44.528Z,40.47
2022-12-17T21:30:15.850Z,41.40
2022-12-17T21:32:43.937Z,39.90
2022-12-17T21:35:12.659Z,43.15
2022-12-17T21:37:40.654Z,42.33
2022-12-17T21:40:09.846Z,40.75
2022-12-17T21:42:56.512Z,39.20
2022-12-17T21:45:25.157Z,38.58
2022-12-17T21:47:53.223Z,39.70
2022-12-17T21:50:21.240Z,42.15
2022-12-17T21:52:49.110Z,39.25
2022-12-17T21:55:17.249Z,42.30
2022-12-17T21:57:46.596Z,39.22
2022-12-17T22:00:15.795Z,40.47
2022-12-17T22:02:44.000Z,35.95
2022-12-17T22:05:17.579Z,37.03
2022-12-17T22:07:47.867Z,41.13
2022-12-17T22:10:40.615Z,38.90
2022-12-17T22:13:27.245Z,38.45
2022-12-17T22:15:55.409Z,39.85
2022-12-17T22:18:23.364Z,39.88
2022-12-17T22:20:59.114Z,41.20
2022-12-17T22:23:27.217Z,41.75
2022-12-17T22:25:55.664Z,37.75
2022-12-17T22:28:34.802Z,38.95
2022-12-17T22:31:23.305Z,39.03
2022-12-17T22:34:16.945Z,38.10
2022-12-17T22:38:59.850Z,37.60
2022-12-17T22:42:54.843Z,38.58
2022-12-17T22:44:41.585Z,39.50
2022-12-17T22:45:24.712Z,36.80
2022-12-17T22:47:53.055Z,38.60
2022-12-17T22:50:27.472Z,37.63
2022-12-17T22:52:59.445Z,36.67
2022-12-17T22:55:27.894Z,37.53
2022-12-17T22:57:56.250Z,39.15
2022-12-17T23:00:27.711Z,39.25
2022-12-17T23:02:56.472Z,40.92
2022-12-17T23:05:25.216Z,39.40
2022-12-17T23:07:53.870Z,36.55
2022-12-17T23:10:22.763Z,36.78
2022-12-17T23:13:41.130Z,39.28
2022-12-17T23:16:13.278Z,37.95
2022-12-17T23:18:41.813Z,37.00
2022-12-17T23:21:11.303Z,39.33
2022-12-17T23:23:40.272Z,37.15
2022-12-17T23:26:09.851Z,37.35
2022-12-17T23:28:41.277Z,37.42
2022-12-17T23:31:12.949Z,38.83
2022-12-17T23:33:42.677Z,33.33
2022-12-17T23:36:13.234Z,37.65
2022-12-17T23:38:41.429Z,36.67
2022-12-17T23:41:11.937Z,36.33
2022-12-17T23:43:40.862Z,37.40
2022-12-17T23:46:11.380Z,39.13
2022-12-17T23:48:45.380Z,37.70
2022-12-17T23:51:14.773Z,36.65
2022-12-17T23:54:15.135Z,40.80
